Whitman, North Dakota
Current Conditions -  °F | °C
As of 7:58 AM on Saturday 25 Oct 2014 (Local Time) from KRDR Reporting Station
Clear Clear  
Wind Chill: 32°   Ceiling: Unl
Heat Index: 38°   Visibility: 10mi
Dew Point: 32°   Wind: 8mph
Humidity: 79%   Direction: 310°NW
Pressure: 30.05"   Gusts: NA
Location:  48.0481°N, 98.1268°W
Report Text: KRDR 251258Z AUTO 31007KT 10SM CLR 03/00 A3005 RMK AO2 SLP186 T00331001
Loading
Personal Weather Stations






























Interactive Weather Map
Tropical Storm Tracking
New forecast layout! Learn more

10-Day Weather Forecast

Advertisements
Track Severe Weather on mobile